Decoded Metar for KPOB (FAYETTEVILLE in NC, USA) (IATA:POB) | Meteo·Mobile Aviation Weather
aviador You're here:

KPOB Decoded Metar

FAYETTEVILLE in NC, USA
Report Time2018-11-16 06:56:00
UTC Time2018-11-16 07:12:22
Flight Rules mvfr MVFR
Wind270° at 09 kt
W.Decomp.*RWY 23: 6.1 kt HW 6.6 kt RCW
W.Rank270° ranks 11
Current wind is above 270° avg. (6.2)
Visibility9999 m
Phenomena:N/A
Clouds:Overcast 011 Hf
Expected CloudBase > 800 ft AGL from Temp-Dew spread
Ceiling1,100 ft
Temp06°C (ISA -9)
Dew Point04°C (87% RH)
AAT1.4°C
QNH1014 hPa
Density Alt-738 ft
Elevation217 ft
Report Wrong Elevation
Raw Report
KPOB 160656Z AUTO 27009KT 10SM OVC011 06/04 A2994 RMK AO2 SLP142
T00610041 FZRANO $=

Extra information for KPOB:More info

Metar Taf Metar & Taf Last 4 Metars F.Rules Stats Wind Profile Meteogram Temp Stats Airport Information Weather charts Add Link Nearby VenuesMetar ALERT Operation Metar Decoded Social comments

AIRNAV info for KPOB